sensor_id;sensor_type;location;lat;lon;timestamp;P1;durP1;ratioP1;P2;durP2;ratioP2
7573;SDS011;3828;48.922;9.116;2023-01-05T00:01:00;1.10;;;1.10;;
7573;SDS011;3828;48.922;9.116;2023-01-05T00:03:28;1.20;;;1.20;;
7573;SDS011;3828;48.922;9.116;2023-01-05T00:05:57;1.10;;;1.10;;
7573;SDS011;3828;48.922;9.116;2023-01-05T00:08:27;1.23;;;1.23;;
7573;SDS011;3828;48.922;9.116;2023-01-05T00:10:53;1.00;;;1.00;;
7573;SDS011;3828;48.922;9.116;2023-01-05T00:13:37;1.30;;;1.20;;
7573;SDS011;3828;48.922;9.116;2023-01-05T00:16:22;1.10;;;1.10;;
7573;SDS011;3828;48.922;9.116;2023-01-05T00:19:07;1.20;;;1.10;;
7573;SDS011;3828;48.922;9.116;2023-01-05T00:21:53;1.20;;;1.20;;
7573;SDS011;3828;48.922;9.116;2023-01-05T00:24:39;1.10;;;1.10;;
7573;SDS011;3828;48.922;9.116;2023-01-05T00:27:06;1.00;;;1.00;;
7573;SDS011;3828;48.922;9.116;2023-01-05T00:29:32;1.10;;;1.10;;
7573;SDS011;3828;48.922;9.116;2023-01-05T00:31:59;1.23;;;1.00;;
7573;SDS011;3828;48.922;9.116;2023-01-05T00:34:26;0.97;;;0.97;;
7573;SDS011;3828;48.922;9.116;2023-01-05T00:36:53;1.10;;;1.10;;
7573;SDS011;3828;48.922;9.116;2023-01-05T00:39:20;1.03;;;1.03;;
7573;SDS011;3828;48.922;9.116;2023-01-05T00:41:52;1.00;;;1.00;;
7573;SDS011;3828;48.922;9.116;2023-01-05T00:44:19;1.10;;;1.10;;
7573;SDS011;3828;48.922;9.116;2023-01-05T00:46:45;1.20;;;1.20;;
7573;SDS011;3828;48.922;9.116;2023-01-05T00:49:12;1.00;;;1.00;;
7573;SDS011;3828;48.922;9.116;2023-01-05T00:51:39;0.90;;;0.90;;
7573;SDS011;3828;48.922;9.116;2023-01-05T00:54:06;2.53;;;1.00;;
7573;SDS011;3828;48.922;9.116;2023-01-05T00:56:33;1.10;;;1.10;;
7573;SDS011;3828;48.922;9.116;2023-01-05T00:59:06;1.07;;;1.07;;
7573;SDS011;3828;48.922;9.116;2023-01-05T01:01:33;1.00;;;1.00;;
7573;SDS011;3828;48.922;9.116;2023-01-05T01:04:01;1.00;;;1.00;;
7573;SDS011;3828;48.922;9.116;2023-01-05T01:06:28;0.90;;;0.90;;
7573;SDS011;3828;48.922;9.116;2023-01-05T01:08:55;1.03;;;1.03;;
7573;SDS011;3828;48.922;9.116;2023-01-05T01:11:24;0.90;;;0.90;;
7573;SDS011;3828;48.922;9.116;2023-01-05T01:13:51;0.90;;;0.90;;
7573;SDS011;3828;48.922;9.116;2023-01-05T01:16:21;1.00;;;1.00;;
7573;SDS011;3828;48.922;9.116;2023-01-05T01:18:49;0.93;;;0.93;;
7573;SDS011;3828;48.922;9.116;2023-01-05T01:21:15;0.90;;;0.90;;
7573;SDS011;3828;48.922;9.116;2023-01-05T01:23:43;1.10;;;1.10;;
7573;SDS011;3828;48.922;9.116;2023-01-05T01:26:10;1.10;;;1.10;;
7573;SDS011;3828;48.922;9.116;2023-01-05T01:28:38;0.90;;;0.90;;
7573;SDS011;3828;48.922;9.116;2023-01-05T01:31:06;0.97;;;0.97;;
7573;SDS011;3828;48.922;9.116;2023-01-05T01:33:37;0.90;;;0.90;;
7573;SDS011;3828;48.922;9.116;2023-01-05T01:36:05;0.90;;;0.90;;
7573;SDS011;3828;48.922;9.116;2023-01-05T01:38:33;1.00;;;1.00;;
7573;SDS011;3828;48.922;9.116;2023-01-05T01:41:00;0.93;;;0.93;;
7573;SDS011;3828;48.922;9.116;2023-01-05T01:43:41;1.00;;;1.00;;
7573;SDS011;3828;48.922;9.116;2023-01-05T01:46:11;0.90;;;0.90;;
7573;SDS011;3828;48.922;9.116;2023-01-05T01:48:42;1.00;;;1.00;;
7573;SDS011;3828;48.922;9.116;2023-01-05T01:51:12;1.43;;;0.90;;
7573;SDS011;3828;48.922;9.116;2023-01-05T01:53:43;0.90;;;0.90;;
7573;SDS011;3828;48.922;9.116;2023-01-05T01:56:13;0.97;;;0.97;;
7573;SDS011;3828;48.922;9.116;2023-01-05T01:58:43;1.13;;;1.00;;
7573;SDS011;3828;48.922;9.116;2023-01-05T02:01:11;1.23;;;1.00;;
7573;SDS011;3828;48.922;9.116;2023-01-05T02:03:38;0.90;;;0.90;;
7573;SDS011;3828;48.922;9.116;2023-01-05T02:06:07;1.20;;;1.03;;
7573;SDS011;3828;48.922;9.116;2023-01-05T02:08:34;0.80;;;0.80;;
7573;SDS011;3828;48.922;9.116;2023-01-05T02:11:04;0.90;;;0.90;;
7573;SDS011;3828;48.922;9.116;2023-01-05T02:13:45;0.90;;;0.90;;
7573;SDS011;3828;48.922;9.116;2023-01-05T02:16:27;0.90;;;0.90;;
7573;SDS011;3828;48.922;9.116;2023-01-05T02:19:05;1.00;;;1.00;;
7573;SDS011;3828;48.922;9.116;2023-01-05T02:22:00;0.90;;;0.90;;
7573;SDS011;3828;48.922;9.116;2023-01-05T02:25:00;1.10;;;1.10;;
7573;SDS011;3828;48.922;9.116;2023-01-05T02:27:46;0.90;;;0.90;;
7573;SDS011;3828;48.922;9.116;2023-01-05T02:30:26;1.13;;;1.00;;
7573;SDS011;3828;48.922;9.116;2023-01-05T02:33:24;1.00;;;1.00;;
7573;SDS011;3828;48.922;9.116;2023-01-05T02:36:03;0.90;;;0.90;;
7573;SDS011;3828;48.922;9.116;2023-01-05T02:38:41;0.93;;;0.93;;
7573;SDS011;3828;48.922;9.116;2023-01-05T02:41:14;0.97;;;0.97;;
7573;SDS011;3828;48.922;9.116;2023-01-05T02:43:46;1.00;;;1.00;;
7573;SDS011;3828;48.922;9.116;2023-01-05T02:46:15;1.33;;;0.90;;
7573;SDS011;3828;48.922;9.116;2023-01-05T02:48:43;0.80;;;0.80;;
7573;SDS011;3828;48.922;9.116;2023-01-05T02:51:15;0.80;;;0.80;;
7573;SDS011;3828;48.922;9.116;2023-01-05T02:53:47;0.80;;;0.80;;
7573;SDS011;3828;48.922;9.116;2023-01-05T02:56:20;0.80;;;0.80;;
7573;SDS011;3828;48.922;9.116;2023-01-05T02:58:49;0.90;;;0.90;;
7573;SDS011;3828;48.922;9.116;2023-01-05T03:01:22;0.90;;;0.90;;
7573;SDS011;3828;48.922;9.116;2023-01-05T03:03:54;1.00;;;1.00;;
7573;SDS011;3828;48.922;9.116;2023-01-05T03:06:33;2.10;;;0.90;;
7573;SDS011;3828;48.922;9.116;2023-01-05T03:09:11;0.70;;;0.70;;
7573;SDS011;3828;48.922;9.116;2023-01-05T03:11:42;0.80;;;0.80;;
7573;SDS011;3828;48.922;9.116;2023-01-05T03:14:34;0.80;;;0.80;;
7573;SDS011;3828;48.922;9.116;2023-01-05T03:17:09;0.80;;;0.80;;
7573;SDS011;3828;48.922;9.116;2023-01-05T03:19:42;0.90;;;0.90;;
7573;SDS011;3828;48.922;9.116;2023-01-05T03:22:11;0.73;;;0.73;;
7573;SDS011;3828;48.922;9.116;2023-01-05T03:24:59;0.80;;;0.80;;
7573;SDS011;3828;48.922;9.116;2023-01-05T03:27:46;0.80;;;0.80;;
7573;SDS011;3828;48.922;9.116;2023-01-05T03:30:33;1.90;;;1.27;;
7573;SDS011;3828;48.922;9.116;2023-01-05T03:33:27;0.80;;;0.80;;
7573;SDS011;3828;48.922;9.116;2023-01-05T03:36:18;0.80;;;0.80;;
7573;SDS011;3828;48.922;9.116;2023-01-05T03:38:51;0.90;;;0.90;;
7573;SDS011;3828;48.922;9.116;2023-01-05T03:41:19;0.80;;;0.80;;
7573;SDS011;3828;48.922;9.116;2023-01-05T03:43:48;0.90;;;0.90;;
7573;SDS011;3828;48.922;9.116;2023-01-05T03:46:16;0.80;;;0.80;;
7573;SDS011;3828;48.922;9.116;2023-01-05T03:48:46;0.80;;;0.80;;
7573;SDS011;3828;48.922;9.116;2023-01-05T03:51:14;0.90;;;0.90;;
7573;SDS011;3828;48.922;9.116;2023-01-05T03:53:42;0.90;;;0.90;;
7573;SDS011;3828;48.922;9.116;2023-01-05T03:56:08;0.90;;;0.90;;
7573;SDS011;3828;48.922;9.116;2023-01-05T03:58:35;0.80;;;0.80;;
7573;SDS011;3828;48.922;9.116;2023-01-05T04:01:02;0.90;;;0.90;;
7573;SDS011;3828;48.922;9.116;2023-01-05T04:03:30;0.80;;;0.80;;
7573;SDS011;3828;48.922;9.116;2023-01-05T04:05:58;0.80;;;0.80;;
7573;SDS011;3828;48.922;9.116;2023-01-05T04:08:25;0.80;;;0.80;;
7573;SDS011;3828;48.922;9.116;2023-01-05T04:10:53;0.80;;;0.80;;
7573;SDS011;3828;48.922;9.116;2023-01-05T04:13:21;0.90;;;0.90;;
7573;SDS011;3828;48.922;9.116;2023-01-05T04:15:50;0.90;;;0.90;;
7573;SDS011;3828;48.922;9.116;2023-01-05T04:18:17;0.80;;;0.80;;
7573;SDS011;3828;48.922;9.116;2023-01-05T04:20:44;0.80;;;0.80;;
7573;SDS011;3828;48.922;9.116;2023-01-05T04:23:15;0.80;;;0.80;;
7573;SDS011;3828;48.922;9.116;2023-01-05T04:25:45;0.90;;;0.90;;
7573;SDS011;3828;48.922;9.116;2023-01-05T04:28:12;0.80;;;0.80;;
7573;SDS011;3828;48.922;9.116;2023-01-05T04:30:39;0.83;;;0.83;;
7573;SDS011;3828;48.922;9.116;2023-01-05T04:33:15;0.90;;;0.90;;
7573;SDS011;3828;48.922;9.116;2023-01-05T04:35:42;0.80;;;0.80;;
7573;SDS011;3828;48.922;9.116;2023-01-05T04:38:09;0.80;;;0.80;;
7573;SDS011;3828;48.922;9.116;2023-01-05T04:40:38;0.80;;;0.80;;
7573;SDS011;3828;48.922;9.116;2023-01-05T04:43:07;0.80;;;0.80;;
7573;SDS011;3828;48.922;9.116;2023-01-05T04:45:34;1.17;;;1.17;;
7573;SDS011;3828;48.922;9.116;2023-01-05T04:48:01;0.90;;;0.90;;
7573;SDS011;3828;48.922;9.116;2023-01-05T04:50:27;0.80;;;0.80;;
7573;SDS011;3828;48.922;9.116;2023-01-05T04:52:54;0.90;;;0.90;;
7573;SDS011;3828;48.922;9.116;2023-01-05T04:55:21;0.83;;;0.83;;
7573;SDS011;3828;48.922;9.116;2023-01-05T04:57:49;0.80;;;0.80;;
7573;SDS011;3828;48.922;9.116;2023-01-05T05:00:16;0.90;;;0.90;;
7573;SDS011;3828;48.922;9.116;2023-01-05T05:02:43;1.10;;;1.00;;
7573;SDS011;3828;48.922;9.116;2023-01-05T05:05:10;1.10;;;1.10;;
7573;SDS011;3828;48.922;9.116;2023-01-05T05:07:37;0.93;;;0.93;;
7573;SDS011;3828;48.922;9.116;2023-01-05T05:10:07;0.90;;;0.90;;
7573;SDS011;3828;48.922;9.116;2023-01-05T05:12:36;0.90;;;0.90;;
7573;SDS011;3828;48.922;9.116;2023-01-05T05:15:05;1.00;;;1.00;;
7573;SDS011;3828;48.922;9.116;2023-01-05T05:17:33;0.90;;;0.90;;
7573;SDS011;3828;48.922;9.116;2023-01-05T05:20:00;0.90;;;0.90;;
7573;SDS011;3828;48.922;9.116;2023-01-05T05:22:26;1.00;;;1.00;;
7573;SDS011;3828;48.922;9.116;2023-01-05T05:24:53;0.93;;;0.93;;
7573;SDS011;3828;48.922;9.116;2023-01-05T05:27:20;0.90;;;0.90;;
7573;SDS011;3828;48.922;9.116;2023-01-05T05:29:47;0.80;;;0.80;;
7573;SDS011;3828;48.922;9.116;2023-01-05T05:32:16;1.00;;;1.00;;
7573;SDS011;3828;48.922;9.116;2023-01-05T05:34:42;0.90;;;0.90;;
7573;SDS011;3828;48.922;9.116;2023-01-05T05:37:10;1.10;;;1.10;;
7573;SDS011;3828;48.922;9.116;2023-01-05T05:39:37;1.00;;;0.97;;
7573;SDS011;3828;48.922;9.116;2023-01-05T05:42:05;1.17;;;0.97;;
7573;SDS011;3828;48.922;9.116;2023-01-05T05:44:32;1.07;;;0.97;;
7573;SDS011;3828;48.922;9.116;2023-01-05T05:46:59;1.10;;;1.10;;
7573;SDS011;3828;48.922;9.116;2023-01-05T05:49:27;1.23;;;1.10;;
7573;SDS011;3828;48.922;9.116;2023-01-05T05:51:54;2.13;;;1.30;;
7573;SDS011;3828;48.922;9.116;2023-01-05T05:54:21;1.37;;;1.30;;
7573;SDS011;3828;48.922;9.116;2023-01-05T05:56:49;2.53;;;1.30;;
7573;SDS011;3828;48.922;9.116;2023-01-05T05:59:17;1.40;;;1.40;;
7573;SDS011;3828;48.922;9.116;2023-01-05T06:01:45;1.50;;;1.40;;
7573;SDS011;3828;48.922;9.116;2023-01-05T06:04:14;1.50;;;1.40;;
7573;SDS011;3828;48.922;9.116;2023-01-05T06:06:44;2.60;;;1.47;;
7573;SDS011;3828;48.922;9.116;2023-01-05T06:09:12;2.10;;;1.53;;
7573;SDS011;3828;48.922;9.116;2023-01-05T06:11:44;3.83;;;1.40;;
7573;SDS011;3828;48.922;9.116;2023-01-05T06:14:12;3.17;;;1.50;;
7573;SDS011;3828;48.922;9.116;2023-01-05T06:16:39;1.67;;;1.53;;
7573;SDS011;3828;48.922;9.116;2023-01-05T06:19:08;4.10;;;1.50;;
7573;SDS011;3828;48.922;9.116;2023-01-05T06:21:36;2.13;;;2.00;;
7573;SDS011;3828;48.922;9.116;2023-01-05T06:24:07;4.40;;;1.63;;
7573;SDS011;3828;48.922;9.116;2023-01-05T06:26:35;2.40;;;1.50;;
7573;SDS011;3828;48.922;9.116;2023-01-05T06:29:03;2.63;;;1.73;;
7573;SDS011;3828;48.922;9.116;2023-01-05T06:31:30;2.33;;;1.70;;
7573;SDS011;3828;48.922;9.116;2023-01-05T06:33:57;2.30;;;2.00;;
7573;SDS011;3828;48.922;9.116;2023-01-05T06:36:24;3.50;;;2.00;;
7573;SDS011;3828;48.922;9.116;2023-01-05T06:38:50;2.90;;;1.80;;
7573;SDS011;3828;48.922;9.116;2023-01-05T06:41:20;4.57;;;2.00;;
7573;SDS011;3828;48.922;9.116;2023-01-05T06:43:48;3.27;;;1.97;;
7573;SDS011;3828;48.922;9.116;2023-01-05T06:46:14;2.00;;;1.70;;
7573;SDS011;3828;48.922;9.116;2023-01-05T06:48:42;2.57;;;1.70;;
7573;SDS011;3828;48.922;9.116;2023-01-05T06:51:08;1.77;;;1.67;;
7573;SDS011;3828;48.922;9.116;2023-01-05T06:53:35;2.20;;;1.60;;
7573;SDS011;3828;48.922;9.116;2023-01-05T06:56:02;3.30;;;1.90;;
7573;SDS011;3828;48.922;9.116;2023-01-05T06:58:31;1.93;;;1.67;;
7573;SDS011;3828;48.922;9.116;2023-01-05T07:00:59;4.63;;;2.10;;
7573;SDS011;3828;48.922;9.116;2023-01-05T07:03:26;2.50;;;2.10;;
7573;SDS011;3828;48.922;9.116;2023-01-05T07:05:53;2.87;;;1.70;;
7573;SDS011;3828;48.922;9.116;2023-01-05T07:08:20;3.27;;;1.80;;
7573;SDS011;3828;48.922;9.116;2023-01-05T07:10:47;2.63;;;1.70;;
7573;SDS011;3828;48.922;9.116;2023-01-05T07:13:23;2.80;;;2.60;;
7573;SDS011;3828;48.922;9.116;2023-01-05T07:15:52;3.87;;;1.80;;
7573;SDS011;3828;48.922;9.116;2023-01-05T07:18:19;4.97;;;3.30;;
7573;SDS011;3828;48.922;9.116;2023-01-05T07:20:46;1.80;;;1.70;;
7573;SDS011;3828;48.922;9.116;2023-01-05T07:23:13;2.13;;;1.80;;
7573;SDS011;3828;48.922;9.116;2023-01-05T07:25:39;3.40;;;1.97;;
7573;SDS011;3828;48.922;9.116;2023-01-05T07:28:07;4.37;;;2.10;;
7573;SDS011;3828;48.922;9.116;2023-01-05T07:30:34;6.00;;;2.40;;
7573;SDS011;3828;48.922;9.116;2023-01-05T07:33:02;5.47;;;2.00;;
7573;SDS011;3828;48.922;9.116;2023-01-05T07:35:29;4.37;;;1.83;;
7573;SDS011;3828;48.922;9.116;2023-01-05T07:37:56;2.67;;;1.93;;
7573;SDS011;3828;48.922;9.116;2023-01-05T07:40:23;2.87;;;2.57;;
7573;SDS011;3828;48.922;9.116;2023-01-05T07:42:50;2.53;;;1.90;;
7573;SDS011;3828;48.922;9.116;2023-01-05T07:45:17;3.73;;;1.90;;
7573;SDS011;3828;48.922;9.116;2023-01-05T07:47:44;4.47;;;2.27;;
7573;SDS011;3828;48.922;9.116;2023-01-05T07:50:13;6.47;;;2.53;;
7573;SDS011;3828;48.922;9.116;2023-01-05T07:52:40;2.93;;;1.70;;
7573;SDS011;3828;48.922;9.116;2023-01-05T07:55:08;3.47;;;1.80;;
7573;SDS011;3828;48.922;9.116;2023-01-05T07:57:37;1.80;;;1.60;;
7573;SDS011;3828;48.922;9.116;2023-01-05T08:00:06;8.57;;;2.07;;
7573;SDS011;3828;48.922;9.116;2023-01-05T08:02:35;4.10;;;1.80;;
7573;SDS011;3828;48.922;9.116;2023-01-05T08:05:02;5.33;;;1.90;;
7573;SDS011;3828;48.922;9.116;2023-01-05T08:07:30;5.30;;;1.97;;
7573;SDS011;3828;48.922;9.116;2023-01-05T08:09:57;4.00;;;2.27;;
7573;SDS011;3828;48.922;9.116;2023-01-05T08:12:40;4.20;;;1.87;;
7573;SDS011;3828;48.922;9.116;2023-01-05T08:15:21;3.23;;;1.70;;
7573;SDS011;3828;48.922;9.116;2023-01-05T08:17:48;5.30;;;2.07;;
7573;SDS011;3828;48.922;9.116;2023-01-05T08:20:15;6.10;;;1.90;;
7573;SDS011;3828;48.922;9.116;2023-01-05T08:22:43;4.50;;;1.87;;
7573;SDS011;3828;48.922;9.116;2023-01-05T08:25:16;3.10;;;1.70;;
7573;SDS011;3828;48.922;9.116;2023-01-05T08:27:43;6.17;;;2.47;;
7573;SDS011;3828;48.922;9.116;2023-01-05T08:30:10;3.13;;;1.80;;
7573;SDS011;3828;48.922;9.116;2023-01-05T08:32:37;7.17;;;2.87;;
7573;SDS011;3828;48.922;9.116;2023-01-05T08:35:05;4.17;;;2.43;;
7573;SDS011;3828;48.922;9.116;2023-01-05T08:37:32;4.53;;;2.70;;
7573;SDS011;3828;48.922;9.116;2023-01-05T08:40:01;6.13;;;2.53;;
7573;SDS011;3828;48.922;9.116;2023-01-05T08:42:27;4.03;;;2.30;;
7573;SDS011;3828;48.922;9.116;2023-01-05T08:44:54;6.13;;;2.40;;
7573;SDS011;3828;48.922;9.116;2023-01-05T08:47:21;7.93;;;2.50;;
7573;SDS011;3828;48.922;9.116;2023-01-05T08:49:47;11.30;;;2.63;;
7573;SDS011;3828;48.922;9.116;2023-01-05T08:52:15;4.97;;;2.20;;
7573;SDS011;3828;48.922;9.116;2023-01-05T08:54:41;7.43;;;2.37;;
7573;SDS011;3828;48.922;9.116;2023-01-05T08:57:10;5.80;;;2.40;;
7573;SDS011;3828;48.922;9.116;2023-01-05T08:59:37;4.30;;;1.80;;
7573;SDS011;3828;48.922;9.116;2023-01-05T09:02:04;10.87;;;2.97;;
7573;SDS011;3828;48.922;9.116;2023-01-05T09:04:32;5.33;;;2.47;;
7573;SDS011;3828;48.922;9.116;2023-01-05T09:06:59;3.77;;;2.00;;
7573;SDS011;3828;48.922;9.116;2023-01-05T09:09:26;4.13;;;2.20;;
7573;SDS011;3828;48.922;9.116;2023-01-05T09:11:54;4.03;;;1.83;;
7573;SDS011;3828;48.922;9.116;2023-01-05T09:14:22;5.23;;;2.43;;
7573;SDS011;3828;48.922;9.116;2023-01-05T09:16:50;6.13;;;1.93;;
7573;SDS011;3828;48.922;9.116;2023-01-05T09:19:17;4.10;;;1.93;;
7573;SDS011;3828;48.922;9.116;2023-01-05T09:21:44;3.97;;;2.60;;
7573;SDS011;3828;48.922;9.116;2023-01-05T09:24:11;4.13;;;2.53;;
7573;SDS011;3828;48.922;9.116;2023-01-05T09:26:38;5.67;;;2.33;;
7573;SDS011;3828;48.922;9.116;2023-01-05T09:29:04;4.87;;;2.20;;
7573;SDS011;3828;48.922;9.116;2023-01-05T09:31:33;3.80;;;2.13;;
7573;SDS011;3828;48.922;9.116;2023-01-05T09:33:59;7.60;;;2.53;;
7573;SDS011;3828;48.922;9.116;2023-01-05T09:36:26;6.47;;;2.40;;
7573;SDS011;3828;48.922;9.116;2023-01-05T09:38:53;9.47;;;2.70;;
7573;SDS011;3828;48.922;9.116;2023-01-05T09:41:22;6.27;;;2.50;;
7573;SDS011;3828;48.922;9.116;2023-01-05T09:43:53;8.53;;;2.50;;
7573;SDS011;3828;48.922;9.116;2023-01-05T09:46:23;3.93;;;2.90;;
7573;SDS011;3828;48.922;9.116;2023-01-05T09:48:57;4.93;;;2.40;;
7573;SDS011;3828;48.922;9.116;2023-01-05T09:51:26;4.63;;;2.20;;
7573;SDS011;3828;48.922;9.116;2023-01-05T09:53:54;7.87;;;3.30;;
7573;SDS011;3828;48.922;9.116;2023-01-05T09:56:25;4.13;;;2.80;;
7573;SDS011;3828;48.922;9.116;2023-01-05T09:58:55;5.07;;;2.77;;
7573;SDS011;3828;48.922;9.116;2023-01-05T10:01:29;9.20;;;2.80;;
7573;SDS011;3828;48.922;9.116;2023-01-05T10:04:01;6.53;;;2.70;;
7573;SDS011;3828;48.922;9.116;2023-01-05T10:06:32;11.00;;;3.23;;
7573;SDS011;3828;48.922;9.116;2023-01-05T10:09:02;7.27;;;2.97;;
7573;SDS011;3828;48.922;9.116;2023-01-05T10:11:33;5.37;;;2.80;;
7573;SDS011;3828;48.922;9.116;2023-01-05T10:14:29;9.10;;;3.10;;
7573;SDS011;3828;48.922;9.116;2023-01-05T10:17:01;12.30;;;3.60;;
7573;SDS011;3828;48.922;9.116;2023-01-05T10:19:30;9.30;;;3.60;;
7573;SDS011;3828;48.922;9.116;2023-01-05T10:21:59;5.93;;;3.97;;
7573;SDS011;3828;48.922;9.116;2023-01-05T10:24:37;7.80;;;3.00;;
7573;SDS011;3828;48.922;9.116;2023-01-05T10:27:12;9.47;;;3.30;;
7573;SDS011;3828;48.922;9.116;2023-01-05T10:29:44;6.60;;;4.40;;
7573;SDS011;3828;48.922;9.116;2023-01-05T10:32:16;4.77;;;3.40;;
7573;SDS011;3828;48.922;9.116;2023-01-05T10:35:00;10.40;;;4.73;;
7573;SDS011;3828;48.922;9.116;2023-01-05T10:37:55;6.30;;;2.53;;
7573;SDS011;3828;48.922;9.116;2023-01-05T10:40:33;8.13;;;3.90;;
7573;SDS011;3828;48.922;9.116;2023-01-05T10:43:20;7.73;;;2.80;;
7573;SDS011;3828;48.922;9.116;2023-01-05T10:46:05;6.03;;;2.63;;
7573;SDS011;3828;48.922;9.116;2023-01-05T10:48:34;9.40;;;3.10;;
7573;SDS011;3828;48.922;9.116;2023-01-05T10:51:03;10.83;;;3.60;;
7573;SDS011;3828;48.922;9.116;2023-01-05T10:53:33;10.80;;;3.00;;
7573;SDS011;3828;48.922;9.116;2023-01-05T10:56:02;5.83;;;2.47;;
7573;SDS011;3828;48.922;9.116;2023-01-05T10:58:33;8.60;;;2.57;;
7573;SDS011;3828;48.922;9.116;2023-01-05T11:01:02;5.50;;;2.40;;
7573;SDS011;3828;48.922;9.116;2023-01-05T11:03:35;6.90;;;3.10;;
7573;SDS011;3828;48.922;9.116;2023-01-05T11:06:07;9.63;;;2.90;;
7573;SDS011;3828;48.922;9.116;2023-01-05T11:08:43;6.67;;;2.97;;
7573;SDS011;3828;48.922;9.116;2023-01-05T11:11:11;9.30;;;2.47;;
7573;SDS011;3828;48.922;9.116;2023-01-05T11:13:47;9.00;;;3.40;;
7573;SDS011;3828;48.922;9.116;2023-01-05T11:16:15;7.83;;;2.50;;
7573;SDS011;3828;48.922;9.116;2023-01-05T11:18:45;8.03;;;2.83;;
7573;SDS011;3828;48.922;9.116;2023-01-05T11:21:17;10.60;;;3.67;;
7573;SDS011;3828;48.922;9.116;2023-01-05T11:23:46;11.70;;;2.80;;
7573;SDS011;3828;48.922;9.116;2023-01-05T11:26:19;6.80;;;2.70;;
7573;SDS011;3828;48.922;9.116;2023-01-05T11:29:01;7.93;;;3.50;;
7573;SDS011;3828;48.922;9.116;2023-01-05T11:31:40;9.00;;;3.50;;
7573;SDS011;3828;48.922;9.116;2023-01-05T11:34:14;8.17;;;3.60;;
7573;SDS011;3828;48.922;9.116;2023-01-05T11:36:51;8.53;;;2.83;;
7573;SDS011;3828;48.922;9.116;2023-01-05T11:39:24;8.00;;;3.33;;
7573;SDS011;3828;48.922;9.116;2023-01-05T11:44:46;12.87;;;3.37;;
7573;SDS011;3828;48.922;9.116;2023-01-05T11:47:23;5.43;;;3.27;;
7573;SDS011;3828;48.922;9.116;2023-01-05T11:50:02;7.50;;;3.47;;
7573;SDS011;3828;48.922;9.116;2023-01-05T11:52:37;9.93;;;3.23;;
7573;SDS011;3828;48.922;9.116;2023-01-05T11:55:21;6.00;;;2.80;;
7573;SDS011;3828;48.922;9.116;2023-01-05T11:57:54;5.17;;;2.57;;
7573;SDS011;3828;48.922;9.116;2023-01-05T12:00:37;8.97;;;2.90;;
7573;SDS011;3828;48.922;9.116;2023-01-05T12:06:07;7.33;;;3.30;;
7573;SDS011;3828;48.922;9.116;2023-01-05T12:08:44;8.77;;;2.97;;
7573;SDS011;3828;48.922;9.116;2023-01-05T12:11:17;7.07;;;2.70;;
7573;SDS011;3828;48.922;9.116;2023-01-05T12:14:08;7.23;;;2.60;;
7573;SDS011;3828;48.922;9.116;2023-01-05T12:16:45;11.57;;;3.37;;
7573;SDS011;3828;48.922;9.116;2023-01-05T12:25:28;6.30;;;3.63;;
7573;SDS011;3828;48.922;9.116;2023-01-05T12:28:13;9.77;;;2.97;;
7573;SDS011;3828;48.922;9.116;2023-01-05T12:30:55;6.50;;;2.60;;
7573;SDS011;3828;48.922;9.116;2023-01-05T12:33:42;11.47;;;3.07;;
7573;SDS011;3828;48.922;9.116;2023-01-05T12:36:28;5.93;;;3.33;;
7573;SDS011;3828;48.922;9.116;2023-01-05T12:39:06;6.80;;;3.60;;
7573;SDS011;3828;48.922;9.116;2023-01-05T12:42:06;6.17;;;2.67;;
7573;SDS011;3828;48.922;9.116;2023-01-05T12:47:43;9.77;;;2.67;;
7573;SDS011;3828;48.922;9.116;2023-01-05T12:50:19;9.63;;;2.87;;
7573;SDS011;3828;48.922;9.116;2023-01-05T12:52:51;5.90;;;2.77;;
7573;SDS011;3828;48.922;9.116;2023-01-05T12:55:22;12.93;;;2.70;;
7573;SDS011;3828;48.922;9.116;2023-01-05T12:57:56;7.97;;;3.17;;
7573;SDS011;3828;48.922;9.116;2023-01-05T13:00:27;6.27;;;2.93;;
7573;SDS011;3828;48.922;9.116;2023-01-05T13:02:59;11.63;;;3.33;;
7573;SDS011;3828;48.922;9.116;2023-01-05T13:05:27;7.23;;;3.23;;
7573;SDS011;3828;48.922;9.116;2023-01-05T13:07:59;7.57;;;2.93;;
7573;SDS011;3828;48.922;9.116;2023-01-05T13:10:32;10.53;;;2.50;;
7573;SDS011;3828;48.922;9.116;2023-01-05T13:13:10;9.33;;;3.63;;
7573;SDS011;3828;48.922;9.116;2023-01-05T13:15:40;8.83;;;2.77;;
7573;SDS011;3828;48.922;9.116;2023-01-05T13:18:12;5.60;;;2.83;;
7573;SDS011;3828;48.922;9.116;2023-01-05T13:20:43;7.70;;;3.20;;
7573;SDS011;3828;48.922;9.116;2023-01-05T13:23:15;7.50;;;2.90;;
7573;SDS011;3828;48.922;9.116;2023-01-05T13:25:46;12.27;;;3.10;;
7573;SDS011;3828;48.922;9.116;2023-01-05T13:28:21;7.40;;;3.27;;
7573;SDS011;3828;48.922;9.116;2023-01-05T13:30:53;7.10;;;3.20;;
7573;SDS011;3828;48.922;9.116;2023-01-05T13:33:40;8.70;;;3.40;;
7573;SDS011;3828;48.922;9.116;2023-01-05T13:36:22;6.87;;;3.13;;
7573;SDS011;3828;48.922;9.116;2023-01-05T13:42:10;7.60;;;3.13;;
7573;SDS011;3828;48.922;9.116;2023-01-05T13:44:59;13.30;;;4.10;;
7573;SDS011;3828;48.922;9.116;2023-01-05T13:47:40;9.80;;;2.80;;
7573;SDS011;3828;48.922;9.116;2023-01-05T13:50:22;10.33;;;3.40;;
7573;SDS011;3828;48.922;9.116;2023-01-05T13:53:04;6.67;;;3.37;;
7573;SDS011;3828;48.922;9.116;2023-01-05T13:55:36;9.17;;;3.93;;
7573;SDS011;3828;48.922;9.116;2023-01-05T13:58:26;7.70;;;2.90;;
7573;SDS011;3828;48.922;9.116;2023-01-05T14:01:03;10.77;;;3.77;;
7573;SDS011;3828;48.922;9.116;2023-01-05T14:03:34;9.90;;;2.70;;
7573;SDS011;3828;48.922;9.116;2023-01-05T14:06:04;7.83;;;3.17;;
7573;SDS011;3828;48.922;9.116;2023-01-05T14:08:40;7.23;;;2.77;;
7573;SDS011;3828;48.922;9.116;2023-01-05T14:11:15;4.80;;;3.63;;
7573;SDS011;3828;48.922;9.116;2023-01-05T14:13:47;6.57;;;2.60;;
7573;SDS011;3828;48.922;9.116;2023-01-05T14:19:18;7.67;;;2.77;;
7573;SDS011;3828;48.922;9.116;2023-01-05T14:22:01;9.43;;;2.97;;
7573;SDS011;3828;48.922;9.116;2023-01-05T14:24:48;11.17;;;2.93;;
7573;SDS011;3828;48.922;9.116;2023-01-05T14:27:15;8.07;;;2.93;;
7573;SDS011;3828;48.922;9.116;2023-01-05T14:32:49;8.60;;;3.47;;
7573;SDS011;3828;48.922;9.116;2023-01-05T14:35:20;8.93;;;3.10;;
7573;SDS011;3828;48.922;9.116;2023-01-05T14:37:55;4.97;;;3.50;;
7573;SDS011;3828;48.922;9.116;2023-01-05T14:40:30;7.93;;;2.80;;
7573;SDS011;3828;48.922;9.116;2023-01-05T14:43:04;10.17;;;3.43;;
7573;SDS011;3828;48.922;9.116;2023-01-05T14:45:33;6.60;;;2.97;;
7573;SDS011;3828;48.922;9.116;2023-01-05T14:48:05;8.90;;;3.37;;
7573;SDS011;3828;48.922;9.116;2023-01-05T14:51:04;12.17;;;3.90;;
7573;SDS011;3828;48.922;9.116;2023-01-05T14:53:41;12.23;;;3.43;;
7573;SDS011;3828;48.922;9.116;2023-01-05T14:56:14;9.50;;;3.27;;
7573;SDS011;3828;48.922;9.116;2023-01-05T14:58:52;6.83;;;3.37;;
7573;SDS011;3828;48.922;9.116;2023-01-05T15:01:24;11.17;;;4.20;;
7573;SDS011;3828;48.922;9.116;2023-01-05T15:03:59;9.13;;;3.80;;
7573;SDS011;3828;48.922;9.116;2023-01-05T15:06:34;10.17;;;3.23;;
7573;SDS011;3828;48.922;9.116;2023-01-05T15:09:18;10.30;;;3.37;;
7573;SDS011;3828;48.922;9.116;2023-01-05T15:15:10;9.37;;;3.40;;
7573;SDS011;3828;48.922;9.116;2023-01-05T15:23:47;8.87;;;4.07;;
7573;SDS011;3828;48.922;9.116;2023-01-05T15:26:38;5.67;;;2.90;;
7573;SDS011;3828;48.922;9.116;2023-01-05T15:29:30;4.43;;;3.20;;
7573;SDS011;3828;48.922;9.116;2023-01-05T15:32:09;5.73;;;2.93;;
7573;SDS011;3828;48.922;9.116;2023-01-05T15:34:42;12.73;;;3.40;;
7573;SDS011;3828;48.922;9.116;2023-01-05T15:37:14;14.73;;;3.60;;
7573;SDS011;3828;48.922;9.116;2023-01-05T15:39:50;8.07;;;3.97;;
7573;SDS011;3828;48.922;9.116;2023-01-05T15:42:19;9.43;;;3.00;;
7573;SDS011;3828;48.922;9.116;2023-01-05T15:44:49;10.70;;;3.40;;
7573;SDS011;3828;48.922;9.116;2023-01-05T15:47:19;3.30;;;2.80;;
7573;SDS011;3828;48.922;9.116;2023-01-05T15:49:48;7.20;;;2.77;;
7573;SDS011;3828;48.922;9.116;2023-01-05T15:52:23;8.50;;;3.07;;
7573;SDS011;3828;48.922;9.116;2023-01-05T15:54:55;6.40;;;3.00;;
7573;SDS011;3828;48.922;9.116;2023-01-05T15:57:27;10.83;;;4.57;;
7573;SDS011;3828;48.922;9.116;2023-01-05T15:59:54;10.37;;;4.00;;
7573;SDS011;3828;48.922;9.116;2023-01-05T16:02:27;6.20;;;3.70;;
7573;SDS011;3828;48.922;9.116;2023-01-05T16:05:06;4.90;;;3.07;;
7573;SDS011;3828;48.922;9.116;2023-01-05T16:07:39;5.83;;;2.73;;
7573;SDS011;3828;48.922;9.116;2023-01-05T16:10:14;7.00;;;2.77;;
7573;SDS011;3828;48.922;9.116;2023-01-05T16:12:42;6.93;;;3.30;;
7573;SDS011;3828;48.922;9.116;2023-01-05T16:15:12;5.63;;;3.30;;
7573;SDS011;3828;48.922;9.116;2023-01-05T16:17:41;9.90;;;3.00;;